createdAt,value
2022-10-21T00:13:33.782Z,5.50
2022-10-21T00:28:37.056Z,5.45
2022-10-21T00:44:01.038Z,5.40
2022-10-21T00:59:05.488Z,5.44
2022-10-21T01:14:30.386Z,5.44
2022-10-21T01:30:03.352Z,5.47
2022-10-21T01:45:24.940Z,5.44
2022-10-21T02:00:29.499Z,5.40
2022-10-21T02:15:34.754Z,5.34
2022-10-21T02:30:48.638Z,5.35
2022-10-21T02:45:59.281Z,5.21
2022-10-21T03:01:02.750Z,5.09
2022-10-21T03:16:07.050Z,5.09
2022-10-21T03:31:10.133Z,5.12
2022-10-21T03:46:13.152Z,5.11
2022-10-21T04:01:16.233Z,5.07
2022-10-21T04:16:21.838Z,5.10
2022-10-21T04:31:29.792Z,5.15
2022-10-21T04:46:35.149Z,5.24
2022-10-21T05:01:38.031Z,5.30
2022-10-21T05:16:41.291Z,5.39
2022-10-21T05:31:44.720Z,5.46
2022-10-21T05:46:48.966Z,5.44
2022-10-21T06:01:52.648Z,5.47
2022-10-21T06:16:56.473Z,5.67
2022-10-21T06:31:59.936Z,5.85
2022-10-21T06:47:03.550Z,6.04
2022-10-21T07:02:07.250Z,6.31
2022-10-21T07:17:10.268Z,6.48
2022-10-21T07:32:13.256Z,6.73
2022-10-21T07:47:16.854Z,6.87
2022-10-21T08:02:20.418Z,7.13
2022-10-21T08:17:23.378Z,7.54
2022-10-21T08:32:26.741Z,7.86
2022-10-21T08:47:45.567Z,8.16
2022-10-21T09:03:13.507Z,8.41
2022-10-21T09:18:45.600Z,8.78
2022-10-21T09:33:59.709Z,9.02
2022-10-21T10:04:31.870Z,9.85
2022-10-21T10:34:57.424Z,10.61
2022-10-21T10:50:00.820Z,10.62
2022-10-21T11:05:36.307Z,10.89
2022-10-21T11:20:49.112Z,11.20
2022-10-21T11:36:20.795Z,11.45
2022-10-21T11:51:56.646Z,11.46
2022-10-21T12:07:29.882Z,11.55
2022-10-21T12:22:34.936Z,11.59
2022-10-21T12:37:44.982Z,11.52
2022-10-21T12:53:21.690Z,11.55
2022-10-21T13:08:30.447Z,11.78
2022-10-21T13:23:38.317Z,11.66
2022-10-21T13:38:55.781Z,11.54
2022-10-21T13:54:12.244Z,11.49
2022-10-21T14:09:29.095Z,11.41
2022-10-21T14:24:37.015Z,11.49
2022-10-21T14:39:41.001Z,11.58
2022-10-21T14:54:48.397Z,11.60
2022-10-21T15:10:03.484Z,11.41
2022-10-21T15:25:14.960Z,11.28
2022-10-21T15:40:20.759Z,11.18
2022-10-21T15:55:24.346Z,11.12
2022-10-21T16:10:38.255Z,11.00
2022-10-21T16:25:41.658Z,10.92
2022-10-21T16:40:44.912Z,10.82
2022-10-21T16:55:48.583Z,10.77
2022-10-21T17:10:51.921Z,10.81
2022-10-21T17:25:56.679Z,10.90
2022-10-21T17:41:00.814Z,10.86
2022-10-21T17:56:08.160Z,10.75
2022-10-21T18:11:15.989Z,10.68
2022-10-21T18:26:25.952Z,10.66
2022-10-21T18:41:29.777Z,10.54
2022-10-21T18:56:34.451Z,10.46
2022-10-21T19:11:38.300Z,10.36
2022-10-21T19:26:42.872Z,10.22
2022-10-21T19:41:47.243Z,10.11
2022-10-21T19:56:52.933Z,10.07
2022-10-21T20:11:56.813Z,9.99
2022-10-21T20:27:02.279Z,9.87
2022-10-21T20:42:05.620Z,9.94
2022-10-21T20:57:08.636Z,9.99
2022-10-21T21:12:12.216Z,9.93
2022-10-21T21:27:16.131Z,9.93
2022-10-21T21:42:19.115Z,9.92
2022-10-21T21:57:27.663Z,9.92
2022-10-21T22:12:31.537Z,9.95
2022-10-21T22:27:34.884Z,9.94
2022-10-21T22:42:38.039Z,9.96
2022-10-21T22:57:41.009Z,9.96
2022-10-21T23:12:44.655Z,9.98
2022-10-21T23:27:47.864Z,10.03
2022-10-21T23:42:50.956Z,10.10
2022-10-21T23:57:53.961Z,10.18
